Time;durP1;ratioP1;P1;durP2;ratioP2;P2;SDS_P1;SDS_P2;PMS_P1;PMS_P2;Temp;Humidity;BMP_temperature;BMP_pressure;BME280_temperature;BME280_humidity;BME280_pressure;Samples;Min_cycle;Max_cycle;Signal;HPM_P1;HPM_P2
2022/07/08 00:01:08;;;;;;;;;;;;;;;16.57;77.42;102559.94;20862719;28;20055;-69
2022/07/08 00:11:30;;;;;;;12.98;2.03;;;;;;;16.50;74.70;102553.34;20844764;28;19921;-68
2022/07/08 00:21:51;;;;;;;11.50;1.45;;;;;;;16.49;75.54;102556.91;20851314;28;20061;-68
2022/07/08 00:32:13;;;;;;;;;;;;;;;16.46;77.26;102553.63;20846430;28;20176;-68
2022/07/08 00:42:41;;;;;;;17.85;1.73;;;;;;;16.43;74.81;102551.19;20844191;28;19921;-68
2022/07/08 00:53:02;;;;;;;;;;;;;;;16.39;77.76;102559.38;20836713;28;20045;-68
2022/07/08 01:03:24;;;;;;;10.60;1.50;;;;;;;16.45;75.06;102560.66;20848440;28;20016;-67
2022/07/08 01:13:47;;;;;;;11.02;1.98;;;;;;;16.46;74.56;102566.81;20843576;28;19925;-68
2022/07/08 01:24:08;;;;;;;9.57;1.42;;;;;;;16.40;74.89;102571.59;20845343;28;20045;-68
2022/07/08 01:34:30;;;;;;;;;;;;;;;16.23;78.53;102559.41;20839019;28;20057;-68
2022/07/08 01:44:52;;;;;;;10.27;2.03;;;;;;;16.16;75.29;102567.75;20842027;28;20292;-68
2022/07/08 01:55:14;;;;;;;12.95;1.50;;;;;;;16.04;75.79;102558.84;20841537;28;20048;-67
2022/07/08 02:05:37;;;;;;;;;;;;;;;16.07;79.94;102563.06;20824025;28;20606;-68
2022/07/08 02:15:58;;;;;;;10.30;1.65;;;;;;;16.00;76.18;102548.59;20836920;28;19921;-68
2022/07/08 02:26:20;;;;;;;7.05;1.20;;;;;;;15.90;76.32;102556.19;20833342;28;20085;-68
2022/07/08 02:36:41;;;;;;;;;;;;;;;15.81;81.31;102572.47;20827533;28;20047;-68
2022/07/08 02:47:05;;;;;;;2.47;0.83;;;;;;;15.81;76.67;102576.91;20842520;28;19928;-68
2022/07/08 02:57:26;;;;;;;6.72;1.10;;;;;;;15.85;77.31;102581.06;20840736;28;20045;-68
2022/07/08 03:07:48;;;;;;;7.25;1.38;;;;;;;15.83;77.06;102601.34;20840270;28;20051;-68
2022/07/08 03:18:09;;;;;;;6.13;1.10;;;;;;;15.77;77.24;102591.16;20849011;28;20539;-68
2022/07/08 03:28:31;;;;;;;;;;;;;;;15.69;82.40;102603.91;20845627;28;20061;-68
2022/07/08 03:38:53;;;;;;;9.70;1.30;;;;;;;15.59;77.11;102602.72;20848096;28;20354;-68
2022/07/08 03:49:15;;;;;;;15.10;1.45;;;;;;;15.43;79.28;102600.13;20836457;28;20049;-70
2022/07/08 03:59:36;;;;;;;7.95;1.15;;;;;;;15.42;79.15;102602.88;20843325;28;20490;-68
2022/07/08 04:09:58;;;;;;;13.05;1.25;;;;;;;15.34;78.80;102615.56;20849302;28;20041;-69
2022/07/08 04:20:19;;;;;;;;;;;;;;;15.29;84.18;102630.72;20841653;28;20045;-70
2022/07/08 04:30:41;;;;;;;6.47;0.93;;;;;;;15.34;81.27;102636.59;20847965;28;20011;-68
2022/07/08 04:41:03;;;;;;;8.60;1.25;;;;;;;15.44;80.51;102637.75;20876188;28;20053;-67
2022/07/08 04:51:24;;;;;;;;;;;;;;;15.46;83.12;102655.16;20836105;28;20057;-66
2022/07/08 05:01:50;;;;;;;7.13;1.08;;;;;;;15.53;78.98;102645.16;20842998;28;19968;-67
2022/07/08 05:12:12;;;;;;;5.85;1.02;;;;;;;15.69;79.66;102644.19;20844482;28;20048;-69
2022/07/08 05:22:34;;;;;;;;;;;;;;;15.85;84.21;102657.34;20824219;28;20069;-67
2022/07/08 05:32:55;;;;;;;11.25;1.50;;;;;;;16.03;80.66;102661.50;20838874;28;20278;-67
2022/07/08 05:43:17;;;;;;;12.02;1.45;;;;;;;16.18;81.48;102677.28;20864887;28;20049;-69
2022/07/08 05:53:38;;;;;;;;;;;;;;;16.36;83.13;102673.59;20824023;28;20136;-68
2022/07/08 06:04:00;;;;;;;10.50;1.23;;;;;;;16.48;79.36;102673.72;20840586;28;19921;-69
2022/07/08 06:14:22;;;;;;;7.15;1.20;;;;;;;16.59;77.68;102671.28;20847891;28;20049;-68
2022/07/08 06:24:43;;;;;;;;;;;;;;;16.82;82.11;102686.56;20853955;28;20059;-69
2022/07/08 06:35:05;;;;;;;11.20;1.40;;;;;;;17.16;76.93;102683.53;20859350;28;20035;-69
2022/07/08 06:45:31;;;;;;;4.35;1.42;;;;;;;17.18;79.21;102709.78;20857906;28;20495;-69
2022/07/08 06:55:53;;;;;;;6.82;1.20;;;;;;;17.16;77.57;102715.16;20839918;28;20772;-69
2022/07/08 07:06:14;;;;;;;11.38;1.40;;;;;;;17.22;77.30;102722.69;20848552;28;20056;-71
2022/07/08 07:16:36;;;;;;;5.55;1.45;;;;;;;17.20;77.59;102724.56;20834284;28;20033;-70
2022/07/08 07:26:58;;;;;;;12.68;1.88;;;;;;;17.25;77.35;102743.59;20840703;28;20053;-70
2022/07/08 07:37:20;;;;;;;7.63;1.50;;;;;;;17.19;79.40;102751.88;20839039;28;20515;-69
2022/07/08 07:47:41;;;;;;;12.00;1.35;;;;;;;17.25;80.59;102754.13;20837193;28;20482;-70
2022/07/08 07:58:03;;;;;;;9.13;1.63;;;;;;;17.36;81.75;102742.97;20830490;28;20042;-69
2022/07/08 08:08:25;;;;;;;6.63;1.52;;;;;;;17.44;82.68;102738.91;20829740;28;20049;-69
2022/07/08 08:18:47;;;;;;;11.75;1.52;;;;;;;17.58;79.43;102746.81;20846941;28;20045;-69
2022/07/08 08:29:09;;;;;;;12.73;1.70;;;;;;;17.58;81.89;102747.63;20797425;28;20056;-68
2022/07/08 08:39:30;;;;;;;4.85;1.25;;;;;;;17.80;83.25;102741.84;20815327;28;20041;-69
2022/07/08 08:49:55;;;;;;;10.70;1.58;;;;;;;18.04;80.44;102742.91;20833350;28;20115;-69
2022/07/08 09:00:18;;;;;;;7.93;1.48;;;;;;;18.13;81.99;102742.31;20814883;28;20038;-68
2022/07/08 09:10:40;;;;;;;6.35;1.25;;;;;;;18.14;82.73;102758.03;20840009;28;20129;-69
2022/07/08 09:21:03;;;;;;;5.63;1.42;;;;;;;18.04;85.70;102756.13;20843369;28;20450;-68
2022/07/08 09:31:33;;;;;;;9.52;1.25;;;;;;;18.01;85.67;102762.41;20821147;28;20470;-70
2022/07/08 09:41:55;;;;;;;;;;;;;;;17.87;85.93;102754.53;20836284;28;20457;-69
2022/07/08 09:52:21;;;;;;;;;;;;;;;17.95;85.57;102751.41;20834862;28;19921;-68
2022/07/08 10:02:43;;;;;;;;;;;;;;;17.91;86.50;102757.81;20837441;28;19928;-67
2022/07/08 10:13:06;;;;;;;;;;;;;;;17.98;89.48;102756.50;20838601;28;19920;-67
2022/07/08 10:23:28;;;;;;;;;;;;;;;17.98;86.11;102751.22;20833948;28;19999;-68
2022/07/08 10:33:58;;;;;;;;;;;;;;;18.13;89.04;102755.50;20837757;28;19921;-69
2022/07/08 10:44:39;;;;;;;;;;;;;;;18.25;87.77;102754.72;20824721;28;19928;-67
2022/07/08 10:55:14;;;;;;;;;;;;;;;18.31;85.28;102751.69;20832440;28;19925;-68
2022/07/08 11:05:37;;;;;;;;;;;;;;;18.55;84.67;102746.47;20838270;28;20309;-68
2022/07/08 11:16:00;;;;;;;6.53;1.50;;;;;;;18.83;84.58;102733.06;20845585;28;19924;-69
2022/07/08 11:26:22;;;;;;;4.07;1.63;;;;;;;18.95;86.90;102736.69;20840585;28;20524;-67
2022/07/08 11:36:53;;;;;;;6.53;1.90;;;;;;;19.11;85.28;102738.13;20837672;28;20037;-67
2022/07/08 11:47:19;;;;;;;9.73;1.67;;;;;;;19.17;85.46;102737.75;20875121;28;20095;-70
2022/07/08 11:57:42;;;;;;;;;;;;;;;19.41;80.99;102722.78;20837630;28;20049;-69
2022/07/08 12:08:13;;;;;;;7.32;1.80;;;;;;;19.75;83.23;102724.72;20829674;28;19927;-68
2022/07/08 12:18:36;;;;;;;8.48;1.75;;;;;;;19.75;81.44;102714.13;20830638;28;20483;-69
2022/07/08 12:28:58;;;;;;;9.05;1.70;;;;;;;19.88;80.69;102714.91;20852679;28;20039;-70
2022/07/08 12:39:27;;;;;;;7.65;1.98;;;;;;;20.07;79.70;102705.53;20851173;28;20134;-71
2022/07/08 12:49:55;;;;;;;7.88;1.70;;;;;;;20.22;80.64;102703.56;20838253;28;20042;-68
2022/07/08 13:00:20;;;;;;;5.05;1.40;;;;;;;20.38;79.20;102701.47;20839956;28;20044;-70
2022/07/08 13:10:41;;;;;;;4.18;1.52;;;;;;;20.64;78.75;102691.41;20840438;28;20123;-70
2022/07/08 13:21:03;;;;;;;5.45;1.20;;;;;;;20.94;79.32;102698.81;20824454;28;20047;-68
2022/07/08 13:31:25;;;;;;;7.50;1.08;;;;;;;21.08;77.67;102699.44;20835069;28;20144;-68
2022/07/08 13:41:46;;;;;;;4.72;1.55;;;;;;;21.29;75.88;102694.22;20836971;28;20041;-68
2022/07/08 13:52:08;;;;;;;4.28;1.40;;;;;;;21.54;76.92;102694.81;20840658;28;20053;-66
2022/07/08 14:02:29;;;;;;;7.00;1.40;;;;;;;21.47;76.55;102694.41;20844863;28;20129;-66
2022/07/08 14:12:51;;;;;;;5.40;1.75;;;;;;;21.51;76.97;102689.72;20828200;28;20045;-66
2022/07/08 14:23:12;;;;;;;4.35;1.30;;;;;;;21.56;76.93;102696.34;20825650;28;20137;-66
2022/07/08 14:33:34;;;;;;;3.08;1.05;;;;;;;21.60;77.89;102689.00;20846978;28;20059;-67
2022/07/08 14:43:56;;;;;;;3.45;1.10;;;;;;;21.58;77.24;102685.63;20848013;28;20042;-67
2022/07/08 14:54:18;;;;;;;4.40;1.10;;;;;;;21.76;76.24;102689.47;20858590;28;20049;-66
2022/07/08 15:04:39;;;;;;;4.43;1.08;;;;;;;21.94;76.85;102672.84;20852916;28;20045;-67
2022/07/08 15:15:01;;;;;;;2.53;1.02;;;;;;;21.92;76.26;102658.84;20856499;28;20045;-67
2022/07/08 15:25:23;;;;;;;3.03;1.20;;;;;;;21.89;77.17;102663.56;20850395;28;20049;-67
2022/07/08 15:35:45;;;;;;;6.00;1.00;;;;;;;21.97;75.88;102659.31;20836495;28;20051;-67
2022/07/08 15:46:07;;;;;;;4.75;1.10;;;;;;;22.28;74.68;102644.28;20847414;28;20402;-66
2022/07/08 15:56:29;;;;;;;3.13;1.05;;;;;;;22.34;74.73;102638.50;20849590;28;20041;-67
2022/07/08 16:06:50;;;;;;;4.68;0.70;;;;;;;22.77;73.37;102640.84;20853457;28;20045;-67
2022/07/08 16:17:16;;;;;;;5.82;1.23;;;;;;;22.84;73.31;102633.19;20840874;28;20037;-67
2022/07/08 16:27:38;;;;;;;2.63;0.85;;;;;;;23.18;72.55;102638.09;20843876;28;20037;-67
2022/07/08 16:37:59;;;;;;;4.07;1.10;;;;;;;23.85;70.47;102639.91;20850652;28;20040;-64
2022/07/08 16:48:30;;;;;;;3.03;1.90;;;;;;;24.06;69.57;102629.09;20848457;28;20080;-66
2022/07/08 16:58:51;;;;;;;1.88;0.80;;;;;;;23.70;70.83;102629.78;20820585;28;20041;-65
2022/07/08 17:09:13;;;;;;;4.78;1.00;;;;;;;23.10;73.35;102627.28;20844698;28;20055;-65
2022/07/08 17:19:37;;;;;;;4.78;0.80;;;;;;;22.67;74.14;102625.81;20839840;28;20409;-66
2022/07/08 17:29:58;;;;;;;2.55;1.00;;;;;;;22.63;73.98;102625.25;20830559;28;20046;-64
2022/07/08 17:40:21;;;;;;;2.85;1.05;;;;;;;22.75;73.73;102618.84;20831597;28;20060;-65
2022/07/08 17:50:43;;;;;;;2.85;0.65;;;;;;;22.40;73.60;102617.56;20842181;28;20524;-65
2022/07/08 18:01:04;;;;;;;4.45;1.10;;;;;;;22.09;74.49;102606.97;20835702;28;20047;-65
2022/07/08 18:11:26;;;;;;;4.35;0.85;;;;;;;21.97;74.46;102605.34;20861264;28;20049;-66
2022/07/08 18:21:48;;;;;;;4.38;0.82;;;;;;;21.90;74.63;102590.88;20858354;28;20071;-64
2022/07/08 18:32:09;;;;;;;2.88;0.80;;;;;;;21.72;74.32;102592.41;20853577;28;20045;-65
2022/07/08 18:42:31;;;;;;;0.90;0.77;;;;;;;21.54;74.45;102591.28;20852381;28;20055;-66
2022/07/08 18:52:59;;;;;;;4.63;0.90;;;;;;;21.30;75.26;102587.94;20847533;28;20045;-65
2022/07/08 19:03:20;;;;;;;3.28;0.82;;;;;;;21.15;75.56;102594.50;20874029;28;20057;-64
2022/07/08 19:13:42;;;;;;;2.55;1.08;;;;;;;20.96;76.22;102602.22;20856556;28;20037;-66
2022/07/08 19:24:05;;;;;;;1.10;0.73;;;;;;;20.72;76.49;102601.50;20840767;28;20072;-65
2022/07/08 19:34:26;;;;;;;3.65;1.00;;;;;;;20.62;76.70;102607.63;20838597;28;20053;-66
2022/07/08 19:44:49;;;;;;;3.88;1.08;;;;;;;20.56;76.33;102603.66;20846692;28;20478;-63
2022/07/08 19:55:11;;;;;;;3.55;1.17;;;;;;;20.39;76.69;102613.88;20845147;28;20590;-65
2022/07/08 20:05:34;;;;;;;4.90;1.02;;;;;;;20.20;76.96;102615.41;20839487;28;20056;-65
2022/07/08 20:15:56;;;;;;;2.90;1.00;;;;;;;20.07;77.66;102604.06;20842814;28;20472;-65
2022/07/08 20:26:17;;;;;;;5.47;1.20;;;;;;;19.80;79.50;102611.38;20845416;28;20053;-64
2022/07/08 20:36:39;;;;;;;3.80;1.30;;;;;;;19.71;79.03;102602.34;20824295;28;20033;-64
2022/07/08 20:47:01;;;;;;;7.45;1.63;;;;;;;19.61;79.49;102601.31;20844451;28;20048;-65
2022/07/08 20:57:24;;;;;;;4.22;1.60;;;;;;;19.51;79.99;102591.53;20837449;28;20427;-66
2022/07/08 21:07:45;;;;;;;5.88;2.38;;;;;;;19.27;80.58;102580.09;20839427;28;20049;-65
2022/07/08 21:18:07;;;;;;;7.88;2.33;;;;;;;19.21;80.59;102585.81;20823363;28;20072;-65
2022/07/08 21:28:29;;;;;;;6.43;2.25;;;;;;;19.03;81.26;102589.78;20844376;28;20053;-65
2022/07/08 21:38:51;;;;;;;5.93;1.73;;;;;;;18.84;81.96;102581.47;20840741;28;20048;-65
2022/07/08 21:49:13;;;;;;;3.65;1.80;;;;;;;18.68;82.67;102575.56;20843879;28;20650;-65
2022/07/08 21:59:35;;;;;;;6.57;1.95;;;;;;;18.58;83.03;102577.19;20842931;28;20049;-65
2022/07/08 22:09:56;;;;;;;3.53;1.73;;;;;;;18.46;83.11;102567.47;20840499;28;20037;-66
2022/07/08 22:20:18;;;;;;;7.22;1.67;;;;;;;18.35;83.39;102568.28;20842618;28;20042;-66
2022/07/08 22:30:40;;;;;;;7.25;2.00;;;;;;;18.14;84.64;102575.88;20842713;28;20455;-65
2022/07/08 22:41:01;;;;;;;5.80;1.98;;;;;;;18.12;84.78;102564.56;20841474;28;20037;-65
2022/07/08 22:51:23;;;;;;;6.18;1.70;;;;;;;18.14;84.78;102556.56;20825404;28;20851;-65
2022/07/08 23:01:44;;;;;;;4.78;1.60;;;;;;;17.99;85.43;102547.03;20829301;28;20043;-64
2022/07/08 23:12:06;;;;;;;3.65;1.75;;;;;;;18.00;84.89;102543.47;20855767;28;20084;-66
2022/07/08 23:22:28;;;;;;;6.75;2.10;;;;;;;18.03;84.58;102545.91;20857061;28;20576;-65
2022/07/08 23:32:50;;;;;;;7.82;2.00;;;;;;;17.99;85.55;102536.47;20860870;28;20041;-65
2022/07/08 23:43:12;;;;;;;11.10;2.05;;;;;;;17.82;85.79;102523.59;20855618;28;20053;-65
2022/07/08 23:53:34;;;;;;;8.02;1.90;;;;;;;17.93;85.37;102511.38;20853597;28;20965;-66
